sensor_id;sensor_type;location;lat;lon;timestamp;P1;durP1;ratioP1;P2;durP2;ratioP2
16998;SDS011;10211;49.476;11.010;2023-09-07T00:01:28;3.77;;;3.23;;
16998;SDS011;10211;49.476;11.010;2023-09-07T00:03:55;4.23;;;3.43;;
16998;SDS011;10211;49.476;11.010;2023-09-07T00:06:21;3.63;;;3.30;;
16998;SDS011;10211;49.476;11.010;2023-09-07T00:08:48;3.90;;;3.50;;
16998;SDS011;10211;49.476;11.010;2023-09-07T00:11:15;6.27;;;3.20;;
16998;SDS011;10211;49.476;11.010;2023-09-07T00:13:42;4.37;;;3.37;;
16998;SDS011;10211;49.476;11.010;2023-09-07T00:16:08;3.53;;;3.20;;
16998;SDS011;10211;49.476;11.010;2023-09-07T00:18:36;3.57;;;3.23;;
16998;SDS011;10211;49.476;11.010;2023-09-07T00:21:03;4.63;;;3.67;;
16998;SDS011;10211;49.476;11.010;2023-09-07T00:23:30;4.17;;;3.33;;
16998;SDS011;10211;49.476;11.010;2023-09-07T00:25:57;5.47;;;3.27;;
16998;SDS011;10211;49.476;11.010;2023-09-07T00:28:23;3.30;;;3.00;;
16998;SDS011;10211;49.476;11.010;2023-09-07T00:30:50;5.47;;;2.87;;
16998;SDS011;10211;49.476;11.010;2023-09-07T00:33:17;4.47;;;2.73;;
16998;SDS011;10211;49.476;11.010;2023-09-07T00:35:45;2.87;;;2.67;;
16998;SDS011;10211;49.476;11.010;2023-09-07T00:38:12;3.60;;;2.83;;
16998;SDS011;10211;49.476;11.010;2023-09-07T00:40:41;4.80;;;3.10;;
16998;SDS011;10211;49.476;11.010;2023-09-07T00:43:08;5.83;;;2.97;;
16998;SDS011;10211;49.476;11.010;2023-09-07T00:45:35;6.00;;;4.10;;
16998;SDS011;10211;49.476;11.010;2023-09-07T00:48:02;4.90;;;3.33;;
16998;SDS011;10211;49.476;11.010;2023-09-07T00:50:30;3.40;;;3.07;;
16998;SDS011;10211;49.476;11.010;2023-09-07T00:52:58;4.40;;;3.60;;
16998;SDS011;10211;49.476;11.010;2023-09-07T00:55:28;4.47;;;3.77;;
16998;SDS011;10211;49.476;11.010;2023-09-07T00:57:57;3.87;;;3.57;;
16998;SDS011;10211;49.476;11.010;2023-09-07T01:00:24;4.47;;;4.03;;
16998;SDS011;10211;49.476;11.010;2023-09-07T01:02:51;5.73;;;3.90;;
16998;SDS011;10211;49.476;11.010;2023-09-07T01:05:17;6.27;;;3.47;;
16998;SDS011;10211;49.476;11.010;2023-09-07T01:07:46;8.20;;;3.90;;
16998;SDS011;10211;49.476;11.010;2023-09-07T01:10:19;4.50;;;3.43;;
16998;SDS011;10211;49.476;11.010;2023-09-07T01:12:47;4.03;;;3.17;;
16998;SDS011;10211;49.476;11.010;2023-09-07T01:15:14;3.77;;;3.20;;
16998;SDS011;10211;49.476;11.010;2023-09-07T01:17:41;4.97;;;3.50;;
16998;SDS011;10211;49.476;11.010;2023-09-07T01:20:09;3.30;;;3.00;;
16998;SDS011;10211;49.476;11.010;2023-09-07T01:22:43;4.23;;;3.80;;
16998;SDS011;10211;49.476;11.010;2023-09-07T01:25:10;3.47;;;3.17;;
16998;SDS011;10211;49.476;11.010;2023-09-07T01:27:37;4.23;;;3.83;;
16998;SDS011;10211;49.476;11.010;2023-09-07T01:30:05;4.70;;;3.37;;
16998;SDS011;10211;49.476;11.010;2023-09-07T01:32:33;6.70;;;3.93;;
16998;SDS011;10211;49.476;11.010;2023-09-07T01:34:59;6.90;;;3.77;;
16998;SDS011;10211;49.476;11.010;2023-09-07T01:37:30;3.50;;;3.20;;
16998;SDS011;10211;49.476;11.010;2023-09-07T01:39:59;3.17;;;2.93;;
16998;SDS011;10211;49.476;11.010;2023-09-07T01:42:26;3.33;;;3.03;;
16998;SDS011;10211;49.476;11.010;2023-09-07T01:44:52;3.53;;;3.00;;
16998;SDS011;10211;49.476;11.010;2023-09-07T01:47:19;3.60;;;2.97;;
16998;SDS011;10211;49.476;11.010;2023-09-07T01:49:46;3.97;;;3.27;;
16998;SDS011;10211;49.476;11.010;2023-09-07T01:52:12;3.57;;;3.20;;
16998;SDS011;10211;49.476;11.010;2023-09-07T01:54:39;4.20;;;3.80;;
16998;SDS011;10211;49.476;11.010;2023-09-07T01:57:07;5.63;;;3.80;;
16998;SDS011;10211;49.476;11.010;2023-09-07T01:59:34;4.53;;;3.40;;
16998;SDS011;10211;49.476;11.010;2023-09-07T02:02:00;5.63;;;3.50;;
16998;SDS011;10211;49.476;11.010;2023-09-07T02:04:27;4.20;;;3.53;;
16998;SDS011;10211;49.476;11.010;2023-09-07T02:06:54;5.47;;;4.13;;
16998;SDS011;10211;49.476;11.010;2023-09-07T02:09:21;5.63;;;3.70;;
16998;SDS011;10211;49.476;11.010;2023-09-07T02:11:47;4.60;;;3.27;;
16998;SDS011;10211;49.476;11.010;2023-09-07T02:14:16;3.43;;;3.13;;
16998;SDS011;10211;49.476;11.010;2023-09-07T02:16:42;5.10;;;3.77;;
16998;SDS011;10211;49.476;11.010;2023-09-07T02:19:09;3.57;;;3.27;;
16998;SDS011;10211;49.476;11.010;2023-09-07T02:21:36;4.87;;;3.83;;
16998;SDS011;10211;49.476;11.010;2023-09-07T02:24:03;3.90;;;3.50;;
16998;SDS011;10211;49.476;11.010;2023-09-07T02:26:30;4.40;;;3.53;;
16998;SDS011;10211;49.476;11.010;2023-09-07T02:28:57;4.70;;;3.30;;
16998;SDS011;10211;49.476;11.010;2023-09-07T02:31:25;5.50;;;3.73;;
16998;SDS011;10211;49.476;11.010;2023-09-07T02:33:52;3.90;;;3.50;;
16998;SDS011;10211;49.476;11.010;2023-09-07T02:36:19;4.10;;;3.70;;
16998;SDS011;10211;49.476;11.010;2023-09-07T02:38:46;4.50;;;4.07;;
16998;SDS011;10211;49.476;11.010;2023-09-07T02:41:13;5.13;;;3.17;;
16998;SDS011;10211;49.476;11.010;2023-09-07T02:43:39;4.30;;;3.90;;
16998;SDS011;10211;49.476;11.010;2023-09-07T02:46:06;3.77;;;3.43;;
16998;SDS011;10211;49.476;11.010;2023-09-07T02:48:34;7.73;;;4.07;;
16998;SDS011;10211;49.476;11.010;2023-09-07T02:51:01;4.50;;;3.23;;
16998;SDS011;10211;49.476;11.010;2023-09-07T02:53:28;5.37;;;3.80;;
16998;SDS011;10211;49.476;11.010;2023-09-07T02:55:55;5.17;;;4.17;;
16998;SDS011;10211;49.476;11.010;2023-09-07T02:58:22;5.03;;;4.17;;
16998;SDS011;10211;49.476;11.010;2023-09-07T03:00:49;5.30;;;3.57;;
16998;SDS011;10211;49.476;11.010;2023-09-07T03:03:16;4.63;;;4.10;;
16998;SDS011;10211;49.476;11.010;2023-09-07T03:05:44;4.23;;;3.57;;
16998;SDS011;10211;49.476;11.010;2023-09-07T03:08:11;7.23;;;3.77;;
16998;SDS011;10211;49.476;11.010;2023-09-07T03:10:38;6.03;;;3.80;;
16998;SDS011;10211;49.476;11.010;2023-09-07T03:13:05;4.77;;;4.27;;
16998;SDS011;10211;49.476;11.010;2023-09-07T03:15:32;3.77;;;3.37;;
16998;SDS011;10211;49.476;11.010;2023-09-07T03:17:59;6.27;;;4.13;;
16998;SDS011;10211;49.476;11.010;2023-09-07T03:20:26;4.80;;;3.40;;
16998;SDS011;10211;49.476;11.010;2023-09-07T03:22:54;4.37;;;3.83;;
16998;SDS011;10211;49.476;11.010;2023-09-07T03:25:22;8.47;;;3.80;;
16998;SDS011;10211;49.476;11.010;2023-09-07T03:27:49;5.63;;;3.67;;
16998;SDS011;10211;49.476;11.010;2023-09-07T03:30:16;4.57;;;4.10;;
16998;SDS011;10211;49.476;11.010;2023-09-07T03:32:42;4.17;;;3.77;;
16998;SDS011;10211;49.476;11.010;2023-09-07T03:35:09;4.27;;;3.87;;
16998;SDS011;10211;49.476;11.010;2023-09-07T03:37:36;4.60;;;4.03;;
16998;SDS011;10211;49.476;11.010;2023-09-07T03:40:05;5.70;;;3.30;;
16998;SDS011;10211;49.476;11.010;2023-09-07T03:42:34;3.63;;;3.33;;
16998;SDS011;10211;49.476;11.010;2023-09-07T03:45:01;4.03;;;3.63;;
16998;SDS011;10211;49.476;11.010;2023-09-07T03:47:28;8.13;;;4.17;;
16998;SDS011;10211;49.476;11.010;2023-09-07T03:49:55;5.33;;;4.27;;
16998;SDS011;10211;49.476;11.010;2023-09-07T03:52:22;5.93;;;3.60;;
16998;SDS011;10211;49.476;11.010;2023-09-07T03:54:49;3.93;;;3.53;;
16998;SDS011;10211;49.476;11.010;2023-09-07T03:57:18;4.60;;;3.90;;
16998;SDS011;10211;49.476;11.010;2023-09-07T03:59:45;3.80;;;3.50;;
16998;SDS011;10211;49.476;11.010;2023-09-07T04:02:12;5.97;;;4.37;;
16998;SDS011;10211;49.476;11.010;2023-09-07T04:04:39;4.27;;;3.63;;
16998;SDS011;10211;49.476;11.010;2023-09-07T04:07:06;4.10;;;3.70;;
16998;SDS011;10211;49.476;11.010;2023-09-07T04:09:33;6.00;;;4.47;;
16998;SDS011;10211;49.476;11.010;2023-09-07T04:12:00;4.50;;;3.80;;
16998;SDS011;10211;49.476;11.010;2023-09-07T04:14:30;5.03;;;3.33;;
16998;SDS011;10211;49.476;11.010;2023-09-07T04:16:56;5.20;;;3.93;;
16998;SDS011;10211;49.476;11.010;2023-09-07T04:19:23;6.83;;;3.60;;
16998;SDS011;10211;49.476;11.010;2023-09-07T04:21:50;5.27;;;3.53;;
16998;SDS011;10211;49.476;11.010;2023-09-07T04:24:17;8.37;;;4.27;;
16998;SDS011;10211;49.476;11.010;2023-09-07T04:26:43;5.40;;;4.10;;
16998;SDS011;10211;49.476;11.010;2023-09-07T04:29:10;6.13;;;4.60;;
16998;SDS011;10211;49.476;11.010;2023-09-07T04:31:39;4.17;;;3.77;;
16998;SDS011;10211;49.476;11.010;2023-09-07T04:34:06;5.00;;;4.00;;
16998;SDS011;10211;49.476;11.010;2023-09-07T04:36:33;4.87;;;3.70;;
16998;SDS011;10211;49.476;11.010;2023-09-07T04:38:59;5.23;;;3.77;;
16998;SDS011;10211;49.476;11.010;2023-09-07T04:41:28;3.80;;;3.50;;
16998;SDS011;10211;49.476;11.010;2023-09-07T04:43:55;5.07;;;3.97;;
16998;SDS011;10211;49.476;11.010;2023-09-07T04:46:23;4.07;;;3.67;;
16998;SDS011;10211;49.476;11.010;2023-09-07T04:48:51;5.27;;;3.90;;
16998;SDS011;10211;49.476;11.010;2023-09-07T04:51:17;5.40;;;4.33;;
16998;SDS011;10211;49.476;11.010;2023-09-07T04:53:45;4.03;;;3.57;;
16998;SDS011;10211;49.476;11.010;2023-09-07T04:56:12;4.77;;;3.87;;
16998;SDS011;10211;49.476;11.010;2023-09-07T04:58:39;4.87;;;4.37;;
16998;SDS011;10211;49.476;11.010;2023-09-07T05:01:07;6.63;;;4.40;;
16998;SDS011;10211;49.476;11.010;2023-09-07T05:03:38;6.90;;;4.33;;
16998;SDS011;10211;49.476;11.010;2023-09-07T05:06:07;5.17;;;4.23;;
16998;SDS011;10211;49.476;11.010;2023-09-07T05:08:34;4.47;;;3.53;;
16998;SDS011;10211;49.476;11.010;2023-09-07T05:11:01;5.57;;;4.43;;
16998;SDS011;10211;49.476;11.010;2023-09-07T05:13:29;4.33;;;3.70;;
16998;SDS011;10211;49.476;11.010;2023-09-07T05:15:57;4.80;;;4.07;;
16998;SDS011;10211;49.476;11.010;2023-09-07T05:18:25;5.57;;;4.27;;
16998;SDS011;10211;49.476;11.010;2023-09-07T05:20:52;5.87;;;4.03;;
16998;SDS011;10211;49.476;11.010;2023-09-07T05:23:20;4.37;;;3.80;;
16998;SDS011;10211;49.476;11.010;2023-09-07T05:25:48;4.57;;;3.87;;
16998;SDS011;10211;49.476;11.010;2023-09-07T05:28:17;6.70;;;4.30;;
16998;SDS011;10211;49.476;11.010;2023-09-07T05:30:45;8.00;;;4.77;;
16998;SDS011;10211;49.476;11.010;2023-09-07T05:33:13;5.30;;;4.33;;
16998;SDS011;10211;49.476;11.010;2023-09-07T05:35:41;6.40;;;5.23;;
16998;SDS011;10211;49.476;11.010;2023-09-07T05:38:08;6.50;;;5.07;;
16998;SDS011;10211;49.476;11.010;2023-09-07T05:40:37;7.70;;;5.00;;
16998;SDS011;10211;49.476;11.010;2023-09-07T05:43:05;7.47;;;5.77;;
16998;SDS011;10211;49.476;11.010;2023-09-07T05:45:33;6.37;;;4.80;;
16998;SDS011;10211;49.476;11.010;2023-09-07T05:48:01;6.03;;;5.00;;
16998;SDS011;10211;49.476;11.010;2023-09-07T05:50:28;9.90;;;5.27;;
16998;SDS011;10211;49.476;11.010;2023-09-07T05:52:55;5.67;;;4.80;;
16998;SDS011;10211;49.476;11.010;2023-09-07T05:55:22;6.07;;;4.77;;
16998;SDS011;10211;49.476;11.010;2023-09-07T05:57:50;10.97;;;5.40;;
16998;SDS011;10211;49.476;11.010;2023-09-07T06:00:17;6.93;;;5.70;;
16998;SDS011;10211;49.476;11.010;2023-09-07T06:02:44;7.27;;;5.30;;
16998;SDS011;10211;49.476;11.010;2023-09-07T06:05:12;6.23;;;5.20;;
16998;SDS011;10211;49.476;11.010;2023-09-07T06:07:39;5.13;;;4.57;;
16998;SDS011;10211;49.476;11.010;2023-09-07T06:10:06;7.43;;;5.30;;
16998;SDS011;10211;49.476;11.010;2023-09-07T06:12:33;6.77;;;5.20;;
16998;SDS011;10211;49.476;11.010;2023-09-07T06:15:01;6.93;;;5.03;;
16998;SDS011;10211;49.476;11.010;2023-09-07T06:17:28;5.90;;;4.63;;
16998;SDS011;10211;49.476;11.010;2023-09-07T06:19:56;5.30;;;4.80;;
16998;SDS011;10211;49.476;11.010;2023-09-07T06:22:23;5.43;;;4.60;;
16998;SDS011;10211;49.476;11.010;2023-09-07T06:24:49;6.20;;;5.60;;
16998;SDS011;10211;49.476;11.010;2023-09-07T06:27:16;6.23;;;5.43;;
16998;SDS011;10211;49.476;11.010;2023-09-07T06:29:43;5.23;;;4.70;;
16998;SDS011;10211;49.476;11.010;2023-09-07T06:32:11;5.30;;;4.80;;
16998;SDS011;10211;49.476;11.010;2023-09-07T06:34:38;10.20;;;4.27;;
16998;SDS011;10211;49.476;11.010;2023-09-07T06:37:05;4.23;;;3.83;;
16998;SDS011;10211;49.476;11.010;2023-09-07T06:39:32;4.17;;;3.30;;
16998;SDS011;10211;49.476;11.010;2023-09-07T06:41:59;3.83;;;3.00;;
16998;SDS011;10211;49.476;11.010;2023-09-07T06:44:26;5.03;;;3.67;;
16998;SDS011;10211;49.476;11.010;2023-09-07T06:46:52;7.60;;;3.70;;
16998;SDS011;10211;49.476;11.010;2023-09-07T06:49:20;4.77;;;4.03;;
16998;SDS011;10211;49.476;11.010;2023-09-07T06:51:47;5.60;;;3.70;;
16998;SDS011;10211;49.476;11.010;2023-09-07T06:54:14;3.77;;;3.20;;
16998;SDS011;10211;49.476;11.010;2023-09-07T06:56:41;4.87;;;3.87;;
16998;SDS011;10211;49.476;11.010;2023-09-07T06:59:08;5.93;;;3.50;;
16998;SDS011;10211;49.476;11.010;2023-09-07T07:01:34;4.73;;;4.07;;
16998;SDS011;10211;49.476;11.010;2023-09-07T07:04:01;4.97;;;3.60;;
16998;SDS011;10211;49.476;11.010;2023-09-07T07:06:29;6.63;;;4.50;;
16998;SDS011;10211;49.476;11.010;2023-09-07T07:08:56;6.00;;;3.93;;
16998;SDS011;10211;49.476;11.010;2023-09-07T07:11:23;7.27;;;4.10;;
16998;SDS011;10211;49.476;11.010;2023-09-07T07:13:49;4.43;;;3.80;;
16998;SDS011;10211;49.476;11.010;2023-09-07T07:16:16;6.40;;;3.87;;
16998;SDS011;10211;49.476;11.010;2023-09-07T07:18:43;7.90;;;4.07;;
16998;SDS011;10211;49.476;11.010;2023-09-07T07:21:09;9.53;;;3.67;;
16998;SDS011;10211;49.476;11.010;2023-09-07T07:23:38;4.97;;;3.70;;
16998;SDS011;10211;49.476;11.010;2023-09-07T07:26:04;5.20;;;3.67;;
16998;SDS011;10211;49.476;11.010;2023-09-07T07:28:30;3.37;;;2.70;;
16998;SDS011;10211;49.476;11.010;2023-09-07T07:30:57;3.80;;;2.90;;
16998;SDS011;10211;49.476;11.010;2023-09-07T07:33:23;2.90;;;2.70;;
16998;SDS011;10211;49.476;11.010;2023-09-07T07:35:50;4.60;;;3.13;;
16998;SDS011;10211;49.476;11.010;2023-09-07T07:38:17;2.90;;;2.70;;
16998;SDS011;10211;49.476;11.010;2023-09-07T07:40:46;3.50;;;2.67;;
16998;SDS011;10211;49.476;11.010;2023-09-07T07:43:12;2.63;;;2.43;;
16998;SDS011;10211;49.476;11.010;2023-09-07T07:45:39;3.00;;;2.70;;
16998;SDS011;10211;49.476;11.010;2023-09-07T07:48:06;2.43;;;2.23;;
16998;SDS011;10211;49.476;11.010;2023-09-07T07:50:36;3.13;;;2.33;;
16998;SDS011;10211;49.476;11.010;2023-09-07T07:53:04;3.90;;;3.00;;
16998;SDS011;10211;49.476;11.010;2023-09-07T07:55:33;3.27;;;2.83;;
16998;SDS011;10211;49.476;11.010;2023-09-07T07:58:05;4.30;;;3.30;;
16998;SDS011;10211;49.476;11.010;2023-09-07T08:00:32;3.37;;;2.90;;
16998;SDS011;10211;49.476;11.010;2023-09-07T08:02:59;3.00;;;2.70;;
16998;SDS011;10211;49.476;11.010;2023-09-07T08:05:27;3.10;;;2.77;;
16998;SDS011;10211;49.476;11.010;2023-09-07T08:07:54;3.77;;;2.60;;
16998;SDS011;10211;49.476;11.010;2023-09-07T08:10:22;4.13;;;2.97;;
16998;SDS011;10211;49.476;11.010;2023-09-07T08:12:51;4.27;;;3.10;;
16998;SDS011;10211;49.476;11.010;2023-09-07T08:15:20;3.73;;;3.00;;
16998;SDS011;10211;49.476;11.010;2023-09-07T08:17:47;3.75;;;2.45;;
16998;SDS011;10211;49.476;11.010;2023-09-07T08:20:15;6.43;;;4.20;;
16998;SDS011;10211;49.476;11.010;2023-09-07T08:22:41;6.37;;;3.60;;
16998;SDS011;10211;49.476;11.010;2023-09-07T08:25:10;7.50;;;3.67;;
16998;SDS011;10211;49.476;11.010;2023-09-07T08:27:38;5.87;;;2.80;;
16998;SDS011;10211;49.476;11.010;2023-09-07T08:30:07;6.80;;;3.67;;
16998;SDS011;10211;49.476;11.010;2023-09-07T08:32:36;3.50;;;2.93;;
16998;SDS011;10211;49.476;11.010;2023-09-07T08:35:03;3.20;;;2.60;;
16998;SDS011;10211;49.476;11.010;2023-09-07T08:37:32;3.37;;;2.83;;
16998;SDS011;10211;49.476;11.010;2023-09-07T08:39:59;6.43;;;2.97;;
16998;SDS011;10211;49.476;11.010;2023-09-07T08:42:27;2.70;;;2.50;;
16998;SDS011;10211;49.476;11.010;2023-09-07T08:44:54;7.07;;;2.70;;
16998;SDS011;10211;49.476;11.010;2023-09-07T08:47:23;2.70;;;2.50;;
16998;SDS011;10211;49.476;11.010;2023-09-07T08:49:56;3.25;;;2.53;;
16998;SDS011;10211;49.476;11.010;2023-09-07T08:52:24;5.35;;;2.67;;
16998;SDS011;10211;49.476;11.010;2023-09-07T08:54:59;3.33;;;2.70;;
16998;SDS011;10211;49.476;11.010;2023-09-07T08:57:29;4.88;;;2.88;;
16998;SDS011;10211;49.476;11.010;2023-09-07T08:59:57;4.07;;;2.78;;
16998;SDS011;10211;49.476;11.010;2023-09-07T09:02:24;7.03;;;2.65;;
16998;SDS011;10211;49.476;11.010;2023-09-07T09:04:51;3.22;;;2.38;;
16998;SDS011;10211;49.476;11.010;2023-09-07T09:10:05;4.95;;;2.30;;
16998;SDS011;10211;49.476;11.010;2023-09-07T09:12:45;2.42;;;2.22;;
16998;SDS011;10211;49.476;11.010;2023-09-07T09:15:29;3.95;;;2.72;;
16998;SDS011;10211;49.476;11.010;2023-09-07T09:18:08;4.20;;;2.85;;
16998;SDS011;10211;49.476;11.010;2023-09-07T09:20:37;3.67;;;2.42;;
16998;SDS011;10211;49.476;11.010;2023-09-07T09:23:06;3.25;;;2.72;;
16998;SDS011;10211;49.476;11.010;2023-09-07T09:25:33;2.80;;;2.60;;
16998;SDS011;10211;49.476;11.010;2023-09-07T09:28:00;3.38;;;2.90;;
16998;SDS011;10211;49.476;11.010;2023-09-07T09:30:27;2.63;;;2.42;;
16998;SDS011;10211;49.476;11.010;2023-09-07T09:32:54;3.50;;;3.20;;
16998;SDS011;10211;49.476;11.010;2023-09-07T09:35:21;5.07;;;4.38;;
16998;SDS011;10211;49.476;11.010;2023-09-07T09:37:49;6.13;;;3.40;;
16998;SDS011;10211;49.476;11.010;2023-09-07T09:40:17;3.38;;;2.70;;
16998;SDS011;10211;49.476;11.010;2023-09-07T09:42:45;3.40;;;2.35;;
16998;SDS011;10211;49.476;11.010;2023-09-07T09:45:12;3.13;;;2.30;;
16998;SDS011;10211;49.476;11.010;2023-09-07T09:47:40;2.58;;;2.25;;
16998;SDS011;10211;49.476;11.010;2023-09-07T09:50:08;4.05;;;2.35;;
16998;SDS011;10211;49.476;11.010;2023-09-07T09:52:36;2.70;;;2.25;;
16998;SDS011;10211;49.476;11.010;2023-09-07T09:55:04;2.22;;;2.03;;
16998;SDS011;10211;49.476;11.010;2023-09-07T09:57:35;2.47;;;2.05;;
16998;SDS011;10211;49.476;11.010;2023-09-07T10:00:02;3.50;;;2.30;;
16998;SDS011;10211;49.476;11.010;2023-09-07T10:02:44;3.30;;;2.63;;
16998;SDS011;10211;49.476;11.010;2023-09-07T10:05:14;2.50;;;2.30;;
16998;SDS011;10211;49.476;11.010;2023-09-07T10:07:42;5.95;;;2.10;;
16998;SDS011;10211;49.476;11.010;2023-09-07T10:10:10;2.38;;;2.28;;
16998;SDS011;10211;49.476;11.010;2023-09-07T10:12:43;3.20;;;2.70;;
16998;SDS011;10211;49.476;11.010;2023-09-07T10:15:20;3.13;;;2.08;;
16998;SDS011;10211;49.476;11.010;2023-09-07T10:17:49;2.47;;;2.28;;
16998;SDS011;10211;49.476;11.010;2023-09-07T10:20:18;2.70;;;2.60;;
16998;SDS011;10211;49.476;11.010;2023-09-07T10:22:47;2.78;;;2.58;;
16998;SDS011;10211;49.476;11.010;2023-09-07T10:25:18;2.63;;;2.42;;
16998;SDS011;10211;49.476;11.010;2023-09-07T10:27:47;2.88;;;2.50;;
16998;SDS011;10211;49.476;11.010;2023-09-07T10:30:14;2.53;;;2.40;;
16998;SDS011;10211;49.476;11.010;2023-09-07T10:32:44;2.40;;;2.30;;
16998;SDS011;10211;49.476;11.010;2023-09-07T10:35:12;2.42;;;2.30;;
16998;SDS011;10211;49.476;11.010;2023-09-07T10:37:39;2.38;;;2.28;;
16998;SDS011;10211;49.476;11.010;2023-09-07T10:40:07;3.10;;;2.90;;
16998;SDS011;10211;49.476;11.010;2023-09-07T10:42:36;2.63;;;2.42;;
16998;SDS011;10211;49.476;11.010;2023-09-07T10:45:14;2.60;;;2.40;;
16998;SDS011;10211;49.476;11.010;2023-09-07T10:47:42;2.70;;;2.53;;
16998;SDS011;10211;49.476;11.010;2023-09-07T10:50:11;2.60;;;2.50;;
16998;SDS011;10211;49.476;11.010;2023-09-07T10:52:38;2.50;;;2.40;;
16998;SDS011;10211;49.476;11.010;2023-09-07T10:55:06;2.53;;;2.42;;
16998;SDS011;10211;49.476;11.010;2023-09-07T10:57:41;2.70;;;2.53;;
16998;SDS011;10211;49.476;11.010;2023-09-07T11:00:09;2.83;;;2.63;;
16998;SDS011;10211;49.476;11.010;2023-09-07T11:02:39;3.00;;;2.80;;
16998;SDS011;10211;49.476;11.010;2023-09-07T11:05:06;2.80;;;2.63;;
16998;SDS011;10211;49.476;11.010;2023-09-07T11:07:35;2.53;;;2.42;;
16998;SDS011;10211;49.476;11.010;2023-09-07T11:10:05;2.83;;;2.70;;
16998;SDS011;10211;49.476;11.010;2023-09-07T11:12:36;2.55;;;2.42;;
16998;SDS011;10211;49.476;11.010;2023-09-07T11:15:04;3.75;;;2.75;;
16998;SDS011;10211;49.476;11.010;2023-09-07T11:17:36;2.75;;;2.63;;
16998;SDS011;10211;49.476;11.010;2023-09-07T11:20:03;3.03;;;2.80;;
16998;SDS011;10211;49.476;11.010;2023-09-07T11:22:32;3.17;;;2.83;;
16998;SDS011;10211;49.476;11.010;2023-09-07T11:24:59;2.88;;;2.67;;
16998;SDS011;10211;49.476;11.010;2023-09-07T11:27:28;3.15;;;2.90;;
16998;SDS011;10211;49.476;11.010;2023-09-07T11:29:56;3.67;;;2.70;;
16998;SDS011;10211;49.476;11.010;2023-09-07T11:32:23;2.70;;;2.50;;
16998;SDS011;10211;49.476;11.010;2023-09-07T11:34:52;3.05;;;2.83;;
16998;SDS011;10211;49.476;11.010;2023-09-07T11:37:22;3.63;;;2.63;;
16998;SDS011;10211;49.476;11.010;2023-09-07T11:39:50;2.78;;;2.58;;
16998;SDS011;10211;49.476;11.010;2023-09-07T11:42:17;2.58;;;2.38;;
16998;SDS011;10211;49.476;11.010;2023-09-07T11:44:44;2.92;;;2.72;;
16998;SDS011;10211;49.476;11.010;2023-09-07T11:47:10;4.85;;;2.13;;
16998;SDS011;10211;49.476;11.010;2023-09-07T11:49:37;2.20;;;2.10;;
16998;SDS011;10211;49.476;11.010;2023-09-07T11:52:05;2.47;;;2.28;;
16998;SDS011;10211;49.476;11.010;2023-09-07T11:54:32;3.53;;;2.95;;
16998;SDS011;10211;49.476;11.010;2023-09-07T11:56:59;3.05;;;2.85;;
16998;SDS011;10211;49.476;11.010;2023-09-07T11:59:26;2.30;;;2.10;;
16998;SDS011;10211;49.476;11.010;2023-09-07T12:01:53;2.13;;;2.03;;
16998;SDS011;10211;49.476;11.010;2023-09-07T12:04:20;4.10;;;2.40;;
16998;SDS011;10211;49.476;11.010;2023-09-07T12:06:46;4.18;;;2.55;;
16998;SDS011;10211;49.476;11.010;2023-09-07T12:09:14;3.05;;;2.53;;
16998;SDS011;10211;49.476;11.010;2023-09-07T12:11:42;2.55;;;2.35;;
16998;SDS011;10211;49.476;11.010;2023-09-07T12:14:09;2.58;;;2.38;;
16998;SDS011;10211;49.476;11.010;2023-09-07T12:16:36;3.58;;;2.38;;
16998;SDS011;10211;49.476;11.010;2023-09-07T12:19:02;2.78;;;2.25;;
16998;SDS011;10211;49.476;11.010;2023-09-07T12:21:29;3.22;;;2.38;;
16998;SDS011;10211;49.476;11.010;2023-09-07T12:23:56;2.60;;;2.40;;
16998;SDS011;10211;49.476;11.010;2023-09-07T12:26:24;3.78;;;2.58;;
16998;SDS011;10211;49.476;11.010;2023-09-07T12:28:51;2.70;;;2.50;;
16998;SDS011;10211;49.476;11.010;2023-09-07T12:31:17;2.20;;;2.00;;
16998;SDS011;10211;49.476;11.010;2023-09-07T12:33:44;3.08;;;2.60;;
16998;SDS011;10211;49.476;11.010;2023-09-07T12:36:11;2.65;;;2.45;;
16998;SDS011;10211;49.476;11.010;2023-09-07T12:38:38;2.63;;;2.40;;
16998;SDS011;10211;49.476;11.010;2023-09-07T12:41:04;5.25;;;2.63;;
16998;SDS011;10211;49.476;11.010;2023-09-07T12:43:33;2.63;;;2.42;;
16998;SDS011;10211;49.476;11.010;2023-09-07T12:46:00;2.85;;;2.30;;
16998;SDS011;10211;49.476;11.010;2023-09-07T12:48:27;2.25;;;2.05;;
16998;SDS011;10211;49.476;11.010;2023-09-07T12:50:54;2.08;;;1.88;;
16998;SDS011;10211;49.476;11.010;2023-09-07T12:53:21;3.60;;;2.40;;
16998;SDS011;10211;49.476;11.010;2023-09-07T12:55:50;3.13;;;2.60;;
16998;SDS011;10211;49.476;11.010;2023-09-07T12:58:17;2.55;;;2.33;;
16998;SDS011;10211;49.476;11.010;2023-09-07T13:00:45;2.47;;;2.28;;
16998;SDS011;10211;49.476;11.010;2023-09-07T13:03:13;5.10;;;2.38;;
16998;SDS011;10211;49.476;11.010;2023-09-07T13:05:40;2.50;;;2.30;;
16998;SDS011;10211;49.476;11.010;2023-09-07T13:08:07;2.63;;;2.42;;
16998;SDS011;10211;49.476;11.010;2023-09-07T13:10:33;6.25;;;2.42;;
16998;SDS011;10211;49.476;11.010;2023-09-07T13:13:00;3.15;;;2.20;;
16998;SDS011;10211;49.476;11.010;2023-09-07T13:15:27;2.30;;;2.10;;
16998;SDS011;10211;49.476;11.010;2023-09-07T13:17:55;2.78;;;2.28;;
16998;SDS011;10211;49.476;11.010;2023-09-07T13:20:22;6.60;;;2.50;;
16998;SDS011;10211;49.476;11.010;2023-09-07T13:22:49;2.30;;;2.15;;
16998;SDS011;10211;49.476;11.010;2023-09-07T13:25:15;3.17;;;2.40;;
16998;SDS011;10211;49.476;11.010;2023-09-07T13:27:42;2.88;;;2.60;;
16998;SDS011;10211;49.476;11.010;2023-09-07T13:30:09;3.53;;;2.45;;
16998;SDS011;10211;49.476;11.010;2023-09-07T13:32:37;2.92;;;2.20;;
16998;SDS011;10211;49.476;11.010;2023-09-07T13:35:05;2.25;;;1.98;;
16998;SDS011;10211;49.476;11.010;2023-09-07T13:37:32;2.67;;;2.03;;
16998;SDS011;10211;49.476;11.010;2023-09-07T13:40:00;2.80;;;1.90;;
16998;SDS011;10211;49.476;11.010;2023-09-07T13:42:28;2.88;;;2.10;;
16998;SDS011;10211;49.476;11.010;2023-09-07T13:44:55;3.53;;;2.33;;
16998;SDS011;10211;49.476;11.010;2023-09-07T13:47:22;2.53;;;2.20;;
16998;SDS011;10211;49.476;11.010;2023-09-07T13:49:48;2.67;;;2.33;;
16998;SDS011;10211;49.476;11.010;2023-09-07T13:52:16;2.70;;;1.90;;
16998;SDS011;10211;49.476;11.010;2023-09-07T13:54:43;4.28;;;2.40;;
16998;SDS011;10211;49.476;11.010;2023-09-07T13:57:10;4.03;;;2.70;;
16998;SDS011;10211;49.476;11.010;2023-09-07T13:59:37;4.25;;;2.92;;
16998;SDS011;10211;49.476;11.010;2023-09-07T14:02:03;4.43;;;2.63;;
16998;SDS011;10211;49.476;11.010;2023-09-07T14:04:30;3.03;;;2.22;;
16998;SDS011;10211;49.476;11.010;2023-09-07T14:06:57;2.80;;;2.00;;
16998;SDS011;10211;49.476;11.010;2023-09-07T14:09:25;2.65;;;2.40;;
16998;SDS011;10211;49.476;11.010;2023-09-07T14:11:52;2.20;;;2.00;;
16998;SDS011;10211;49.476;11.010;2023-09-07T14:14:18;3.20;;;2.28;;
16998;SDS011;10211;49.476;11.010;2023-09-07T14:16:46;2.70;;;1.98;;
16998;SDS011;10211;49.476;11.010;2023-09-07T14:19:13;6.05;;;2.50;;
16998;SDS011;10211;49.476;11.010;2023-09-07T14:21:39;3.70;;;2.25;;
16998;SDS011;10211;49.476;11.010;2023-09-07T14:24:06;5.10;;;2.17;;
16998;SDS011;10211;49.476;11.010;2023-09-07T14:26:34;5.55;;;2.40;;
16998;SDS011;10211;49.476;11.010;2023-09-07T14:29:01;2.70;;;2.50;;
16998;SDS011;10211;49.476;11.010;2023-09-07T14:31:27;6.65;;;2.60;;
16998;SDS011;10211;49.476;11.010;2023-09-07T14:33:54;2.22;;;2.03;;
16998;SDS011;10211;49.476;11.010;2023-09-07T14:36:21;2.20;;;2.00;;
16998;SDS011;10211;49.476;11.010;2023-09-07T14:38:47;5.88;;;2.65;;